Time;durP1;ratioP1;P1;durP2;ratioP2;P2;SDS_P1;SDS_P2;PMS_P1;PMS_P2;Temp;Humidity;BMP_temperature;BMP_pressure;BME280_temperature;BME280_humidity;BME280_pressure;Samples;Min_cycle;Max_cycle;Signal;HPM_P1;HPM_P2
2023/03/18 00:00:50;;;;;;;18.90;6.43;;;;;;;12.99;100.00;100665.09;6327332;22;20019;-68
2023/03/18 00:03:16;;;;;;;12.10;5.35;;;;;;;12.92;100.00;100670.09;6300181;22;20025;-68
2023/03/18 00:05:41;;;;;;;14.95;6.50;;;;;;;12.71;100.00;100661.00;6326555;22;20014;-70
2023/03/18 00:08:08;;;;;;;13.10;6.75;;;;;;;12.50;100.00;100660.81;6326255;22;20041;-70
2023/03/18 00:10:34;;;;;;;16.63;7.43;;;;;;;12.64;100.00;100651.72;6326031;22;20050;-70
2023/03/18 00:13:01;;;;;;;13.35;7.55;;;;;;;12.73;100.00;100660.88;6325934;22;20056;-68
2023/03/18 00:15:27;;;;;;;15.52;8.07;;;;;;;12.39;100.00;100660.72;6325979;22;20018;-68
2023/03/18 00:17:53;;;;;;;18.02;9.02;;;;;;;12.25;100.00;100671.56;6326173;22;20350;-69
2023/03/18 00:20:27;;;;;;;15.55;9.13;;;;;;;12.35;100.00;100669.94;6325896;22;20010;-68
2023/03/18 00:22:54;;;;;;;22.48;10.50;;;;;;;12.28;100.00;100674.03;6326126;22;20033;-68
2023/03/18 00:25:20;;;;;;;21.10;10.93;;;;;;;12.21;100.00;100670.09;6325683;22;20026;-68
2023/03/18 00:27:46;;;;;;;24.38;10.70;;;;;;;12.25;100.00;100671.56;6325709;22;20227;-70
2023/03/18 00:30:12;;;;;;;19.70;9.93;;;;;;;12.30;100.00;100674.75;6297539;22;20019;-70
2023/03/18 00:32:38;;;;;;;19.42;9.40;;;;;;;12.40;100.00;100681.16;6326393;22;20021;-69
2023/03/18 00:35:04;;;;;;;16.77;9.75;;;;;;;11.96;100.00;100690.59;6325230;22;20011;-69
2023/03/18 00:37:30;;;;;;;14.85;9.13;;;;;;;12.14;100.00;100678.56;6296721;22;20102;-69
2023/03/18 00:40:15;;;;;;;22.08;9.80;;;;;;;12.05;100.00;100684.59;6296515;22;20478;-67
2023/03/18 00:42:46;;;;;;;20.95;10.05;;;;;;;12.03;100.00;100685.66;6297395;22;20122;-69
2023/03/18 00:45:14;;;;;;;17.75;10.00;;;;;;;11.97;100.00;100686.94;6325474;22;20011;-67
2023/03/18 00:47:41;;;;;;;18.10;10.00;;;;;;;12.07;100.00;100696.00;6325338;22;20094;-68
2023/03/18 00:50:09;;;;;;;23.58;9.52;;;;;;;12.05;100.00;100697.06;6297394;22;20042;-69
2023/03/18 00:52:35;;;;;;;19.30;8.68;;;;;;;12.13;100.00;100697.38;6325125;22;20015;-68
2023/03/18 00:55:00;;;;;;;21.00;8.95;;;;;;;11.89;100.00;100703.50;6325679;22;20090;-68
2023/03/18 00:57:28;;;;;;;16.92;9.55;;;;;;;12.02;100.00;100708.84;6297169;22;20025;-69
2023/03/18 00:59:54;;;;;;;21.10;9.32;;;;;;;11.94;100.00;100711.19;6325311;22;20057;-70
2023/03/18 01:02:20;;;;;;;16.83;8.90;;;;;;;11.86;100.00;100709.09;6325132;22;20083;-70
2023/03/18 01:04:45;;;;;;;16.33;9.15;;;;;;;12.19;100.00;100708.47;6297866;22;20095;-69
2023/03/18 01:07:12;;;;;;;18.20;8.80;;;;;;;11.84;100.00;100713.66;6297477;22;20026;-68
2023/03/18 01:09:40;;;;;;;17.13;8.75;;;;;;;12.03;100.00;100712.38;6326125;22;20091;-69
2023/03/18 01:12:07;;;;;;;18.20;9.93;;;;;;;12.06;100.00;100717.50;6297916;22;20011;-68
2023/03/18 01:14:35;;;;;;;14.45;9.18;;;;;;;11.82;100.00;100712.09;6325983;22;20042;-69
2023/03/18 01:17:01;;;;;;;21.35;8.80;;;;;;;11.79;100.00;100709.59;6326078;22;20035;-69
2023/03/18 01:19:27;;;;;;;28.10;9.88;;;;;;;11.77;100.00;100704.38;6298263;22;20023;-70
2023/03/18 01:21:53;;;;;;;18.10;9.10;;;;;;;11.97;100.00;100708.31;6297705;22;20026;-69
2023/03/18 01:24:19;;;;;;;16.23;7.95;;;;;;;12.07;100.00;100704.03;6297559;22;20015;-67
2023/03/18 01:26:45;;;;;;;25.65;9.13;;;;;;;12.27;100.00;100699.06;6326002;22;20344;-69
2023/03/18 01:29:11;;;;;;;23.98;9.10;;;;;;;12.16;100.00;100694.50;6298762;22;20022;-69
2023/03/18 01:31:37;;;;;;;16.55;8.73;;;;;;;11.93;100.00;100699.66;6297583;22;20018;-69
2023/03/18 01:34:08;;;;;;;15.50;7.88;;;;;;;12.13;100.00;100694.72;6298475;22;20018;-69
2023/03/18 01:36:43;;;;;;;15.55;7.90;;;;;;;11.97;100.00;100702.97;6297031;22;20552;-69
2023/03/18 01:39:09;;;;;;;17.60;7.72;;;;;;;11.74;100.00;100707.25;6323986;22;20021;-68
2023/03/18 01:41:35;;;;;;;15.65;8.48;;;;;;;11.72;100.00;100709.16;6297481;22;20025;-69
2023/03/18 01:44:03;;;;;;;15.80;9.15;;;;;;;11.89;100.00;100708.00;6297263;22;20082;-69
2023/03/18 01:46:37;;;;;;;19.83;9.73;;;;;;;11.90;100.00;100712.41;6297819;22;20015;-68
2023/03/18 01:49:09;;;;;;;19.85;10.27;;;;;;;11.91;100.00;100717.63;6297557;22;20135;-70
2023/03/18 01:51:36;;;;;;;22.05;10.68;;;;;;;12.03;100.00;100720.38;6326380;22;20045;-68
2023/03/18 01:54:05;;;;;;;20.98;10.77;;;;;;;11.85;100.00;100723.41;6325105;22;20727;-69
2023/03/18 01:56:35;;;;;;;23.17;12.27;;;;;;;11.91;100.00;100722.97;6326018;22;20058;-69
2023/03/18 01:59:01;;;;;;;29.80;15.30;;;;;;;11.84;100.00;100721.69;6298047;22;20019;-68
2023/03/18 02:01:38;;;;;;;32.85;15.93;;;;;;;12.04;100.00;100720.28;6297722;22;20027;-68
2023/03/18 02:04:07;;;;;;;28.40;15.13;;;;;;;11.89;100.00;100719.53;6298095;22;20023;-69
2023/03/18 02:06:33;;;;;;;29.23;14.05;;;;;;;11.80;100.00;100720.19;6326708;22;20015;-69
2023/03/18 02:09:00;;;;;;;30.27;15.43;;;;;;;11.86;100.00;100717.09;6326080;22;20049;-69
2023/03/18 02:11:27;;;;;;;23.67;13.65;;;;;;;12.04;100.00;100717.59;6298324;22;20106;-68
2023/03/18 02:13:56;;;;;;;21.23;10.95;;;;;;;12.02;100.00;100716.88;6299312;22;20018;-67
2023/03/18 02:16:37;;;;;;;22.23;9.63;;;;;;;12.00;100.00;100715.25;6298570;22;20056;-68
2023/03/18 02:19:29;;;;;;;19.40;9.93;;;;;;;12.02;100.00;100713.34;6299131;22;20079;-69
2023/03/18 02:22:22;;;;;;;17.35;9.07;;;;;;;12.06;100.00;100713.03;6298545;22;20038;-69
2023/03/18 02:25:01;;;;;;;20.50;9.65;;;;;;;12.01;100.00;100701.81;6304017;22;20023;-70
2023/03/18 02:27:31;;;;;;;26.40;10.93;;;;;;;12.11;100.00;100710.88;6304472;22;20098;-68
2023/03/18 02:30:02;;;;;;;18.50;9.38;;;;;;;12.01;100.00;100706.28;6299928;22;20684;-69
2023/03/18 02:32:33;;;;;;;16.20;8.77;;;;;;;12.01;100.00;100709.81;6299249;22;20026;-68
2023/03/18 02:35:04;;;;;;;18.73;10.40;;;;;;;11.99;100.00;100709.06;6299773;22;20022;-69
2023/03/18 02:37:31;;;;;;;18.77;9.32;;;;;;;11.95;100.00;100709.38;6299109;22;20018;-69
2023/03/18 02:40:19;;;;;;;22.85;10.98;;;;;;;12.02;100.00;100710.66;6298411;22;20042;-69
2023/03/18 02:42:46;;;;;;;23.02;10.32;;;;;;;11.92;100.00;100713.16;6298623;22;20758;-69
2023/03/18 02:45:39;;;;;;;26.88;10.85;;;;;;;11.87;100.00;100716.13;6298447;22;20041;-69
2023/03/18 02:48:16;;;;;;;23.17;11.95;;;;;;;11.97;100.00;100719.00;6326497;22;20736;-70
2023/03/18 02:50:42;;;;;;;30.08;12.30;;;;;;;11.70;100.00;100724.47;6298569;22;20018;-67
2023/03/18 02:53:13;;;;;;;28.05;13.27;;;;;;;11.64;100.00;100728.41;6298175;22;20018;-70
2023/03/18 02:55:39;;;;;;;31.25;14.38;;;;;;;11.76;100.00;100734.72;6326768;22;20014;-69
2023/03/18 02:58:06;;;;;;;32.55;15.00;;;;;;;11.65;100.00;100739.97;6272843;22;20018;-68
2023/03/18 03:00:32;;;;;;;30.67;14.35;;;;;;;11.70;100.00;100744.94;6298180;22;20075;-68
2023/03/18 03:02:58;;;;;;;27.58;14.85;;;;;;;11.63;100.00;100749.88;6326171;22;20497;-69
2023/03/18 03:05:24;;;;;;;27.23;15.05;;;;;;;11.35;100.00;100754.47;6326753;22;20144;-69
2023/03/18 03:07:50;;;;;;;32.53;17.33;;;;;;;11.37;100.00;100763.19;6299388;22;20031;-69
2023/03/18 03:10:16;;;;;;;32.83;18.08;;;;;;;11.47;100.00;100758.09;6298268;22;20048;-67
2023/03/18 03:12:42;;;;;;;34.00;17.52;;;;;;;11.53;100.00;100760.34;6326481;22;20090;-68
2023/03/18 03:15:09;;;;;;;37.30;17.85;;;;;;;11.31;100.00;100760.09;6298671;22;20095;-69
2023/03/18 03:17:40;;;;;;;39.22;18.40;;;;;;;11.38;100.00;100767.56;6273400;22;20014;-68
2023/03/18 03:20:07;;;;;;;39.08;18.67;;;;;;;11.68;100.00;100763.75;6297416;22;20026;-68
2023/03/18 03:22:33;;;;;;;34.35;17.00;;;;;;;11.66;100.00;100766.56;6325517;22;20034;-69
2023/03/18 03:25:00;;;;;;;34.42;17.90;;;;;;;11.39;100.00;100766.63;6297503;22;20072;-69
2023/03/18 03:27:26;;;;;;;31.95;17.73;;;;;;;11.46;100.00;100772.41;6297439;22;20019;-69
2023/03/18 03:29:53;;;;;;;39.47;19.77;;;;;;;11.72;100.00;100761.75;6325942;22;20018;-69
2023/03/18 03:32:19;;;;;;;37.55;18.40;;;;;;;11.57;100.00;100766.34;6296903;22;20097;-69
2023/03/18 03:34:46;;;;;;;38.35;17.73;;;;;;;11.58;100.00;100779.56;6298771;22;20274;-68
2023/03/18 03:37:12;;;;;;;51.92;18.70;;;;;;;11.46;100.00;100775.09;6327354;22;20091;-68
2023/03/18 03:39:38;;;;;;;43.80;19.17;;;;;;;11.60;100.00;100779.47;6254890;22;20131;-68
2023/03/18 03:42:03;;;;;;;42.40;17.60;;;;;;;11.61;100.00;100784.72;6139397;22;20444;-69
2023/03/18 03:44:29;;;;;;;41.03;17.67;;;;;;;11.74;100.00;100778.50;6242226;22;20067;-69
2023/03/18 03:46:55;;;;;;;34.80;16.73;;;;;;;11.35;100.00;100778.47;6138724;22;20021;-69
2023/03/18 03:49:21;;;;;;;33.75;17.05;;;;;;;11.29;100.00;100776.19;6241773;22;20104;-68
2023/03/18 03:51:47;;;;;;;36.70;18.08;;;;;;;11.34;100.00;100776.75;6242447;22;20024;-68
2023/03/18 03:54:14;;;;;;;34.67;17.48;;;;;;;11.62;100.00;100774.88;6241685;22;20021;-68
2023/03/18 03:56:39;;;;;;;38.42;17.98;;;;;;;11.62;100.00;100785.56;6138904;22;20013;-70
2023/03/18 03:59:05;;;;;;;41.03;18.48;;;;;;;11.51;100.00;100785.44;6241426;22;20022;-69
2023/03/18 04:01:50;;;;;;;36.63;18.58;;;;;;;11.66;100.00;100793.25;6138860;22;20044;-69
2023/03/18 04:04:16;;;;;;;37.67;17.77;;;;;;;11.63;100.00;100792.63;6139120;22;20025;-69
2023/03/18 04:06:42;;;;;;;35.92;19.25;;;;;;;11.66;100.00;100795.09;6241580;22;20441;-69
2023/03/18 04:09:08;;;;;;;40.92;19.52;;;;;;;11.61;100.00;100799.88;6241285;22;20699;-70
2023/03/18 04:11:33;;;;;;;35.35;19.58;;;;;;;11.55;100.00;100801.16;6138668;22;20088;-69
2023/03/18 04:13:59;;;;;;;39.90;19.65;;;;;;;11.60;100.00;100806.19;6241570;22;20022;-69
2023/03/18 04:16:26;;;;;;;41.53;18.90;;;;;;;11.70;100.00;100799.25;6242044;22;20022;-69
2023/03/18 04:18:51;;;;;;;39.42;17.65;;;;;;;11.50;100.00;100797.94;6242357;22;20114;-70
2023/03/18 04:21:21;;;;;;;39.30;18.60;;;;;;;11.76;100.00;100804.19;6242174;22;20142;-68
2023/03/18 04:23:52;;;;;;;42.55;19.02;;;;;;;11.80;100.00;100802.16;6139111;22;20391;-69
2023/03/18 04:26:17;;;;;;;37.05;19.00;;;;;;;11.61;100.00;100811.41;6139376;22;20035;-70
2023/03/18 04:28:43;;;;;;;40.60;18.95;;;;;;;11.85;100.00;100810.75;6241302;22;20441;-69
2023/03/18 04:31:13;;;;;;;40.63;20.15;;;;;;;11.65;100.00;100804.91;6241430;22;20454;-70
2023/03/18 04:33:39;;;;;;;37.88;20.10;;;;;;;11.75;100.00;100812.31;6241933;22;20097;-69
2023/03/18 04:36:06;;;;;;;42.08;18.00;;;;;;;11.47;100.00;100808.81;6242341;22;20019;-70
2023/03/18 04:38:33;;;;;;;37.08;18.63;;;;;;;11.39;100.00;100805.81;6262212;22;20012;-69
2023/03/18 04:40:58;;;;;;;43.42;19.55;;;;;;;11.53;100.00;100807.56;6298854;22;20071;-69
2023/03/18 04:43:24;;;;;;;55.20;21.13;;;;;;;11.53;100.00;100803.06;6325872;22;20707;-69
2023/03/18 04:45:50;;;;;;;43.67;21.45;;;;;;;11.51;100.00;100815.69;6298914;22;20019;-68
2023/03/18 04:48:17;;;;;;;50.80;22.90;;;;;;;11.52;100.00;100816.53;6298453;22;20110;-69
2023/03/18 04:50:44;;;;;;;53.90;23.25;;;;;;;11.40;100.00;100811.06;6297942;22;20081;-69
2023/03/18 04:53:15;;;;;;;43.40;20.98;;;;;;;11.46;100.00;100817.81;6297345;22;20131;-69
2023/03/18 04:55:42;;;;;;;52.63;22.67;;;;;;;11.70;100.00;100815.28;6298594;22;20029;-68
2023/03/18 04:58:10;;;;;;;50.80;22.33;;;;;;;11.56;100.00;100810.88;6297381;22;20010;-67
2023/03/18 05:00:40;;;;;;;47.28;21.42;;;;;;;11.27;100.00;100814.66;6296825;22;20590;-67
2023/03/18 05:03:35;;;;;;;58.75;24.60;;;;;;;11.58;100.00;100810.75;6310797;22;20054;-69
2023/03/18 05:06:01;;;;;;;53.25;24.08;;;;;;;11.60;100.00;100814.22;6296882;22;20022;-69
2023/03/18 05:08:37;;;;;;;47.97;24.48;;;;;;;11.63;100.00;100811.31;6296832;22;20018;-67
2023/03/18 05:11:02;;;;;;;56.65;26.65;;;;;;;11.59;100.00;100813.31;6297764;22;20016;-69
2023/03/18 05:13:29;;;;;;;51.88;26.88;;;;;;;11.70;100.00;100811.72;6296963;22;20022;-69
2023/03/18 05:15:56;;;;;;;55.25;26.13;;;;;;;11.60;100.00;100816.88;6296752;22;20011;-69
2023/03/18 05:18:21;;;;;;;50.92;26.65;;;;;;;11.59;100.00;100826.69;6271377;22;20011;-68
2023/03/18 05:20:49;;;;;;;52.60;25.23;;;;;;;11.67;100.00;100821.69;6297809;22;20722;-69
2023/03/18 05:23:16;;;;;;;50.35;25.02;;;;;;;11.61;100.00;100823.94;6297300;22;20097;-68
2023/03/18 05:25:49;;;;;;;50.93;26.07;;;;;;;11.35;100.00;100826.53;6297600;22;20353;-69
2023/03/18 05:28:16;;;;;;;51.80;25.40;;;;;;;11.15;100.00;100830.53;6297545;22;20030;-70
2023/03/18 05:30:48;;;;;;;60.35;26.33;;;;;;;11.48;100.00;100831.91;6297271;22;20015;-69
2023/03/18 05:33:15;;;;;;;54.65;25.50;;;;;;;11.36;100.00;100841.59;6296826;22;20030;-70
2023/03/18 05:35:53;;;;;;;54.42;26.08;;;;;;;11.36;100.00;100836.25;6296561;22;20026;-69
2023/03/18 05:38:23;;;;;;;54.92;27.45;;;;;;;11.27;100.00;100841.34;6296878;22;20030;-69
2023/03/18 05:40:48;;;;;;;67.70;27.35;;;;;;;11.53;100.00;100842.28;6297644;22;20026;-69
2023/03/18 05:43:31;;;;;;;55.72;26.55;;;;;;;11.41;100.00;100838.63;6297333;22;20712;-69
2023/03/18 05:45:57;;;;;;;59.88;27.23;;;;;;;11.28;100.00;100849.25;6297242;22;20071;-66
2023/03/18 05:48:40;;;;;;;56.17;27.42;;;;;;;11.23;100.00;100854.03;6296723;22;20098;-69
2023/03/18 05:51:06;;;;;;;56.78;26.58;;;;;;;11.47;100.00;100856.88;6296934;22;20011;-70
2023/03/18 05:53:34;;;;;;;55.97;27.95;;;;;;;11.28;100.00;100859.06;6296703;22;20666;-68
2023/03/18 05:56:11;;;;;;;58.03;26.88;;;;;;;11.38;100.00;100858.34;6296434;22;20093;-69
2023/03/18 05:58:37;;;;;;;60.95;27.40;;;;;;;11.43;100.00;100860.72;6296635;22;20014;-68
2023/03/18 06:01:30;;;;;;;54.25;27.30;;;;;;;11.36;100.00;100864.78;6276476;22;20018;-69
2023/03/18 06:03:56;;;;;;;53.10;25.77;;;;;;;11.50;100.00;100863.84;6296718;22;20042;-69
2023/03/18 06:06:21;;;;;;;54.17;27.98;;;;;;;11.39;100.00;100869.88;6325159;22;20021;-69
2023/03/18 06:08:47;;;;;;;62.80;29.65;;;;;;;11.32;100.00;100871.25;6297166;22;20388;-68
2023/03/18 06:11:14;;;;;;;62.83;28.75;;;;;;;11.47;100.00;100856.88;6297039;22;20417;-69
2023/03/18 06:13:40;;;;;;;65.63;28.27;;;;;;;11.57;100.00;100868.66;6296691;22;20102;-69
2023/03/18 06:16:07;;;;;;;63.22;30.67;;;;;;;11.50;100.00;100871.88;6296181;22;20030;-68
2023/03/18 06:18:34;;;;;;;61.90;30.48;;;;;;;11.46;100.00;100881.03;6322230;22;20463;-68
2023/03/18 06:20:59;;;;;;;64.68;30.42;;;;;;;11.54;100.00;100894.72;6296362;22;20019;-69
2023/03/18 06:23:25;;;;;;;64.53;33.25;;;;;;;11.83;100.00;100872.28;6324017;22;20395;-69
2023/03/18 06:25:51;;;;;;;70.97;32.05;;;;;;;11.69;100.00;100883.00;6296579;22;20027;-69
2023/03/18 06:28:19;;;;;;;64.47;32.53;;;;;;;11.56;100.00;100885.66;6295721;22;20014;-69
2023/03/18 06:30:45;;;;;;;69.13;33.85;;;;;;;11.78;100.00;100884.22;6296772;22;20022;-70
2023/03/18 06:33:11;;;;;;;61.75;31.33;;;;;;;11.86;100.00;100887.25;6271114;22;20026;-69
2023/03/18 06:35:37;;;;;;;60.50;30.83;;;;;;;11.90;100.00;100888.78;6297012;22;20103;-69
2023/03/18 06:38:02;;;;;;;57.58;28.73;;;;;;;11.81;100.00;100882.19;6297170;22;20014;-68
2023/03/18 06:40:30;;;;;;;52.13;29.20;;;;;;;11.80;100.00;100890.31;6297201;22;20019;-69
2023/03/18 06:42:57;;;;;;;59.20;28.08;;;;;;;11.78;100.00;100894.88;6296674;22;20026;-69
2023/03/18 06:45:33;;;;;;;61.65;28.75;;;;;;;12.03;100.00;100896.78;6295861;22;20015;-68
2023/03/18 06:48:03;;;;;;;61.60;28.30;;;;;;;12.18;100.00;100904.59;6296726;22;20014;-68
2023/03/18 06:50:31;;;;;;;61.92;27.83;;;;;;;12.04;100.00;100902.00;6297029;22;20030;-69
2023/03/18 06:52:58;;;;;;;57.72;28.92;;;;;;;12.22;100.00;100899.91;6296081;22;20114;-68
2023/03/18 06:55:28;;;;;;;58.38;28.45;;;;;;;12.32;100.00;100895.63;6296058;22;20018;-69
2023/03/18 06:57:55;;;;;;;57.92;27.85;;;;;;;12.34;100.00;100898.19;6295837;22;20085;-71
2023/03/18 07:00:25;;;;;;;57.95;28.42;;;;;;;12.44;100.00;100901.94;6295300;22;20025;-69
2023/03/18 07:02:51;;;;;;;54.70;27.15;;;;;;;12.55;100.00;100903.84;6294635;22;20046;-69
2023/03/18 07:05:21;;;;;;;65.60;26.80;;;;;;;12.60;100.00;100899.03;6294179;22;20029;-69
2023/03/18 07:07:48;;;;;;;69.78;29.83;;;;;;;12.49;100.00;100898.94;6322833;22;20023;-69
2023/03/18 07:10:21;;;;;;;60.83;27.58;;;;;;;12.83;100.00;100895.56;6322886;22;20018;-68
2023/03/18 07:12:49;;;;;;;55.35;27.80;;;;;;;13.24;100.00;100885.53;6294946;22;20099;-69
2023/03/18 07:15:19;;;;;;;52.35;27.80;;;;;;;13.32;100.00;100880.47;6269542;22;20818;-70
2023/03/18 07:17:45;;;;;;;50.63;26.92;;;;;;;13.37;100.00;100879.16;6323790;22;20011;-70
2023/03/18 07:20:11;;;;;;;42.65;25.38;;;;;;;13.43;100.00;100883.19;6324059;22;20022;-69
2023/03/18 07:22:37;;;;;;;43.88;22.52;;;;;;;13.31;100.00;100903.72;6295653;22;20015;-69
2023/03/18 07:25:03;;;;;;;46.45;22.65;;;;;;;13.09;100.00;100915.09;6296378;22;20388;-68
2023/03/18 07:27:28;;;;;;;46.05;22.88;;;;;;;12.93;100.00;100914.50;6324012;22;20021;-70
2023/03/18 07:29:54;;;;;;;43.13;22.70;;;;;;;12.92;100.00;100920.81;6294935;22;20014;-69
2023/03/18 07:32:20;;;;;;;45.53;22.65;;;;;;;13.21;100.00;100918.72;6296404;22;20014;-67
2023/03/18 07:34:47;;;;;;;38.58;21.27;;;;;;;13.00;100.00;100917.56;6296418;22;20061;-69
2023/03/18 07:37:13;;;;;;;56.63;23.50;;;;;;;13.19;100.00;100928.66;6296468;22;20493;-68
2023/03/18 07:39:38;;;;;;;44.95;22.25;;;;;;;13.29;100.00;100940.44;6324569;22;20019;-70
2023/03/18 07:42:04;;;;;;;46.17;22.90;;;;;;;13.68;100.00;100917.03;6324037;22;20019;-69
2023/03/18 07:44:30;;;;;;;44.90;23.48;;;;;;;13.67;100.00;100926.06;6295904;22;20087;-68
2023/03/18 07:46:56;;;;;;;44.70;23.52;;;;;;;13.85;100.00;100924.66;6324012;22;20019;-69
2023/03/18 07:49:22;;;;;;;38.03;22.58;;;;;;;13.87;100.00;100921.88;6295266;22;20082;-68
2023/03/18 07:51:48;;;;;;;38.05;20.73;;;;;;;13.65;100.00;100917.25;6323856;22;20030;-69
2023/03/18 07:54:14;;;;;;;42.90;21.33;;;;;;;13.93;100.00;100916.03;6324350;22;20018;-69
2023/03/18 07:56:39;;;;;;;35.53;20.88;;;;;;;13.86;100.00;100926.38;6323522;22;20011;-70
2023/03/18 07:59:04;;;;;;;36.00;20.27;;;;;;;13.86;100.00;100928.22;6323820;22;20581;-67
2023/03/18 08:01:30;;;;;;;34.30;20.35;;;;;;;14.07;100.00;100915.84;6323528;22;20034;-67
2023/03/18 08:03:56;;;;;;;38.55;20.48;;;;;;;14.28;100.00;100917.84;6323342;22;20026;-68
2023/03/18 08:06:22;;;;;;;41.72;20.30;;;;;;;14.33;100.00;100926.38;6322805;22;20375;-69
2023/03/18 08:08:48;;;;;;;32.35;18.48;;;;;;;15.42;100.00;100924.78;6322363;22;20010;-67
2023/03/18 08:11:14;;;;;;;29.65;16.65;;;;;;;15.18;100.00;100924.94;6322498;22;20068;-70
2023/03/18 08:13:39;;;;;;;27.35;16.08;;;;;;;14.61;100.00;100930.44;6321493;22;20010;-67
2023/03/18 08:16:05;;;;;;;28.52;16.63;;;;;;;13.86;100.00;100938.94;6294358;22;20011;-67
2023/03/18 08:18:31;;;;;;;28.80;16.90;;;;;;;13.99;100.00;100940.53;6322351;22;20037;-69
2023/03/18 08:20:56;;;;;;;27.35;17.55;;;;;;;14.13;100.00;100936.81;6324420;22;20019;-69
2023/03/18 08:23:22;;;;;;;30.35;18.25;;;;;;;14.72;100.00;100938.53;6324409;22;20477;-69
2023/03/18 08:25:49;;;;;;;32.33;17.55;;;;;;;15.14;100.00;100939.59;6324522;22;20045;-69
2023/03/18 08:28:16;;;;;;;34.55;16.98;;;;;;;15.23;100.00;100940.69;6325490;22;20037;-70
2023/03/18 08:30:41;;;;;;;31.38;16.40;;;;;;;14.93;100.00;100949.38;6297241;22;20092;-69
2023/03/18 08:33:07;;;;;;;24.50;15.90;;;;;;;15.28;100.00;100949.22;6324633;22;20006;-69
2023/03/18 08:35:33;;;;;;;23.13;14.80;;;;;;;14.92;100.00;100947.69;6325031;22;20019;-69
2023/03/18 08:37:59;;;;;;;25.17;14.40;;;;;;;15.10;100.00;100948.03;6325456;22;20011;-69
2023/03/18 08:40:25;;;;;;;23.48;15.07;;;;;;;14.99;100.00;100955.13;6325674;22;20695;-67
2023/03/18 08:42:51;;;;;;;28.00;14.45;;;;;;;15.44;100.00;100947.00;6325650;22;20430;-68
2023/03/18 08:45:17;;;;;;;25.13;15.15;;;;;;;15.18;100.00;100959.88;6298725;22;20491;-69
2023/03/18 08:47:43;;;;;;;26.58;14.15;;;;;;;15.18;100.00;100964.38;6326142;22;20038;-68
2023/03/18 08:50:09;;;;;;;20.42;13.43;;;;;;;14.88;100.00;100962.31;6326139;22;20030;-70
2023/03/18 08:52:37;;;;;;;27.27;14.93;;;;;;;15.23;100.00;100967.56;6325731;22;20353;-69
2023/03/18 08:55:04;;;;;;;24.60;13.90;;;;;;;15.18;100.00;100970.63;6325222;22;20011;-69
2023/03/18 08:57:30;;;;;;;22.83;13.50;;;;;;;14.99;100.00;100960.47;6324878;22;20555;-67
2023/03/18 08:59:56;;;;;;;22.08;12.65;;;;;;;15.09;100.00;100954.38;6325929;22;20101;-69
2023/03/18 09:02:22;;;;;;;20.20;12.27;;;;;;;15.34;100.00;100961.31;6325636;22;20563;-68
2023/03/18 09:04:48;;;;;;;27.17;13.93;;;;;;;14.99;100.00;100965.00;6325801;22;20345;-69
2023/03/18 09:07:14;;;;;;;20.50;12.93;;;;;;;14.86;100.00;100962.47;6325179;22;20026;-72
2023/03/18 09:09:39;;;;;;;22.08;12.88;;;;;;;14.76;100.00;100969.53;6325067;22;20018;-69
2023/03/18 09:12:05;;;;;;;22.27;12.50;;;;;;;15.14;100.00;100973.66;6325051;22;20022;-69
2023/03/18 09:14:31;;;;;;;21.52;13.05;;;;;;;15.76;100.00;100960.50;6323306;22;20094;-72
2023/03/18 09:16:58;;;;;;;18.88;11.75;;;;;;;15.61;100.00;100963.56;6323958;22;20799;-72
2023/03/18 09:19:24;;;;;;;22.58;12.63;;;;;;;16.55;100.00;100958.22;6324683;22;20046;-68
2023/03/18 09:21:50;;;;;;;20.02;13.10;;;;;;;16.36;100.00;100958.09;6324623;22;20280;-68
2023/03/18 09:24:16;;;;;;;18.35;12.88;;;;;;;16.64;100.00;100964.66;6324118;22;20123;-69
2023/03/18 09:26:42;;;;;;;18.35;12.13;;;;;;;16.61;100.00;100966.75;6296882;22;20445;-69
2023/03/18 09:29:08;;;;;;;20.40;13.15;;;;;;;16.44;100.00;100957.47;6324453;22;20021;-69
2023/03/18 09:31:33;;;;;;;15.88;12.02;;;;;;;15.62;100.00;100967.97;6323608;22;20011;-69
2023/03/18 09:33:59;;;;;;;19.02;11.77;;;;;;;15.85;100.00;100958.00;6324220;22;20018;-67
2023/03/18 09:36:26;;;;;;;16.83;11.60;;;;;;;15.80;100.00;100969.16;6324078;22;20017;-69
2023/03/18 09:38:51;;;;;;;19.98;13.25;;;;;;;16.54;100.00;100959.22;6295995;22;20117;-68
2023/03/18 09:41:46;;;;;;;20.23;12.63;;;;;;;16.46;100.00;100952.78;6324023;22;20106;-69
2023/03/18 09:44:23;;;;;;;19.00;11.02;;;;;;;16.14;100.00;100961.78;6323904;22;20015;-69
2023/03/18 09:47:40;;;;;;;13.65;10.10;;;;;;;16.49;100.00;100968.69;6324890;22;20082;-69
2023/03/18 09:50:24;;;;;;;24.17;11.30;;;;;;;16.36;100.00;100963.50;6324897;22;20377;-67
2023/03/18 09:53:00;;;;;;;16.08;9.60;;;;;;;16.53;100.00;100962.06;6324736;22;20382;-67
2023/03/18 09:55:35;;;;;;;18.95;10.85;;;;;;;16.65;100.00;100974.44;6296976;22;20019;-69
2023/03/18 09:58:04;;;;;;;16.17;10.73;;;;;;;16.52;100.00;100966.59;6296157;22;20017;-68
2023/03/18 10:00:35;;;;;;;17.10;10.43;;;;;;;16.33;100.00;100969.16;6324975;22;20112;-67
2023/03/18 10:03:11;;;;;;;17.20;9.43;;;;;;;16.35;100.00;100977.94;6324810;22;20018;-67
2023/03/18 10:05:51;;;;;;;18.38;10.65;;;;;;;16.55;100.00;100974.38;6324838;22;20030;-68
2023/03/18 10:08:37;;;;;;;23.45;11.10;;;;;;;16.92;100.00;100981.13;6296209;22;20047;-67
2023/03/18 10:11:10;;;;;;;16.70;11.63;;;;;;;16.63;100.00;100986.34;6323763;22;20015;-68
2023/03/18 10:13:48;;;;;;;18.65;11.77;;;;;;;16.89;100.00;100986.81;6269923;22;20029;-69
2023/03/18 10:16:23;;;;;;;23.75;12.13;;;;;;;16.96;100.00;100982.56;6323085;22;20790;-68
2023/03/18 10:18:49;;;;;;;19.85;11.70;;;;;;;16.71;100.00;100989.22;6323049;22;20736;-68
2023/03/18 10:21:17;;;;;;;16.90;11.43;;;;;;;16.91;100.00;100987.50;6322862;22;20098;-68
2023/03/18 10:23:59;;;;;;;14.85;9.48;;;;;;;16.89;100.00;100984.09;6323157;22;20076;-68
2023/03/18 10:26:49;;;;;;;11.73;8.00;;;;;;;17.53;100.00;100984.63;6322942;22;20093;-68
2023/03/18 10:29:26;;;;;;;12.18;7.38;;;;;;;18.02;100.00;100973.88;6322780;22;20969;-69
2023/03/18 10:32:01;;;;;;;16.77;8.52;;;;;;;18.03;97.31;100981.03;6322164;22;20441;-67
2023/03/18 10:35:00;;;;;;;14.05;7.65;;;;;;;17.92;92.51;100978.44;6321462;22;20018;-68
2023/03/18 10:37:40;;;;;;;13.38;7.38;;;;;;;18.14;94.79;100970.06;6321926;22;20072;-67
2023/03/18 10:40:17;;;;;;;10.43;7.35;;;;;;;18.34;93.15;100974.44;6322220;22;20018;-68
2023/03/18 10:42:44;;;;;;;12.73;7.53;;;;;;;18.46;91.33;100971.59;6322319;22;20026;-69
2023/03/18 10:45:27;;;;;;;12.13;7.88;;;;;;;18.41;94.28;100976.56;6322645;22;20104;-69
2023/03/18 10:48:12;;;;;;;10.55;6.82;;;;;;;18.62;93.31;100971.81;6322274;22;20052;-68
2023/03/18 10:50:46;;;;;;;12.27;7.75;;;;;;;18.73;88.11;100966.31;6322493;22;20011;-68
2023/03/18 10:53:31;;;;;;;12.30;6.13;;;;;;;18.43;88.68;100961.94;6321924;22;20026;-69
2023/03/18 10:56:07;;;;;;;10.18;5.70;;;;;;;19.22;87.30;100969.63;6321955;22;20019;-69
2023/03/18 10:58:33;;;;;;;10.65;6.22;;;;;;;19.10;85.95;100966.28;6321978;22;20010;-69
2023/03/18 11:00:59;;;;;;;9.43;5.88;;;;;;;18.92;85.44;100967.22;6322534;22;20757;-69
2023/03/18 11:03:33;;;;;;;9.00;5.78;;;;;;;18.87;84.17;100959.56;6322548;22;20014;-70
2023/03/18 11:06:03;;;;;;;8.77;5.40;;;;;;;18.92;84.72;100959.97;6323201;22;20878;-69
2023/03/18 11:08:36;;;;;;;8.40;4.85;;;;;;;18.83;83.47;100956.31;6322146;22;20068;-70
2023/03/18 11:11:22;;;;;;;6.35;4.18;;;;;;;18.92;81.17;100951.84;6323347;22;20101;-68
2023/03/18 11:13:56;;;;;;;5.60;3.97;;;;;;;19.18;81.79;100957.44;6294311;22;20019;-69